sensor_id;sensor_type;location;lat;lon;timestamp;P1;durP1;ratioP1;P2;durP2;ratioP2
37305;SDS011;23193;42.656;21.170;2023-05-07T00:01:20;23.02;;;11.32;;
37305;SDS011;23193;42.656;21.170;2023-05-07T00:03:46;26.75;;;12.05;;
37305;SDS011;23193;42.656;21.170;2023-05-07T00:06:12;28.25;;;11.45;;
37305;SDS011;23193;42.656;21.170;2023-05-07T00:08:39;26.98;;;10.63;;
37305;SDS011;23193;42.656;21.170;2023-05-07T00:11:05;24.77;;;10.70;;
37305;SDS011;23193;42.656;21.170;2023-05-07T00:13:31;24.85;;;10.27;;
37305;SDS011;23193;42.656;21.170;2023-05-07T00:16:01;32.88;;;10.88;;
37305;SDS011;23193;42.656;21.170;2023-05-07T00:18:27;30.40;;;10.07;;
37305;SDS011;23193;42.656;21.170;2023-05-07T00:20:53;25.60;;;11.27;;
37305;SDS011;23193;42.656;21.170;2023-05-07T00:23:19;30.02;;;11.13;;
37305;SDS011;23193;42.656;21.170;2023-05-07T00:25:46;19.33;;;9.20;;
37305;SDS011;23193;42.656;21.170;2023-05-07T00:28:12;17.55;;;9.63;;
37305;SDS011;23193;42.656;21.170;2023-05-07T00:30:38;20.95;;;8.90;;
37305;SDS011;23193;42.656;21.170;2023-05-07T00:33:04;23.70;;;9.10;;
37305;SDS011;23193;42.656;21.170;2023-05-07T00:35:30;25.58;;;9.07;;
37305;SDS011;23193;42.656;21.170;2023-05-07T00:37:57;14.07;;;8.23;;
37305;SDS011;23193;42.656;21.170;2023-05-07T00:40:23;13.52;;;8.07;;
37305;SDS011;23193;42.656;21.170;2023-05-07T00:42:49;18.27;;;8.63;;
37305;SDS011;23193;42.656;21.170;2023-05-07T00:45:17;14.48;;;7.72;;
37305;SDS011;23193;42.656;21.170;2023-05-07T00:47:44;26.25;;;8.50;;
37305;SDS011;23193;42.656;21.170;2023-05-07T00:50:10;14.30;;;8.82;;
37305;SDS011;23193;42.656;21.170;2023-05-07T00:52:37;12.82;;;8.05;;
37305;SDS011;23193;42.656;21.170;2023-05-07T00:55:05;13.45;;;8.20;;
37305;SDS011;23193;42.656;21.170;2023-05-07T00:57:37;16.35;;;8.63;;
37305;SDS011;23193;42.656;21.170;2023-05-07T01:00:05;17.60;;;8.73;;
37305;SDS011;23193;42.656;21.170;2023-05-07T01:02:33;17.42;;;9.23;;
37305;SDS011;23193;42.656;21.170;2023-05-07T01:05:00;23.58;;;11.63;;
37305;SDS011;23193;42.656;21.170;2023-05-07T01:07:26;19.95;;;9.30;;
37305;SDS011;23193;42.656;21.170;2023-05-07T01:09:53;18.52;;;7.15;;
37305;SDS011;23193;42.656;21.170;2023-05-07T01:12:19;15.43;;;7.45;;
37305;SDS011;23193;42.656;21.170;2023-05-07T01:14:45;15.00;;;7.97;;
37305;SDS011;23193;42.656;21.170;2023-05-07T01:17:13;17.60;;;7.88;;
37305;SDS011;23193;42.656;21.170;2023-05-07T01:19:40;11.63;;;7.47;;
37305;SDS011;23193;42.656;21.170;2023-05-07T01:22:08;21.50;;;8.05;;
37305;SDS011;23193;42.656;21.170;2023-05-07T01:24:36;15.20;;;7.68;;
37305;SDS011;23193;42.656;21.170;2023-05-07T01:27:02;14.73;;;7.20;;
37305;SDS011;23193;42.656;21.170;2023-05-07T01:29:28;25.00;;;9.40;;
37305;SDS011;23193;42.656;21.170;2023-05-07T01:31:59;13.88;;;8.07;;
37305;SDS011;23193;42.656;21.170;2023-05-07T01:34:25;15.87;;;7.87;;
37305;SDS011;23193;42.656;21.170;2023-05-07T01:36:55;13.35;;;7.75;;
37305;SDS011;23193;42.656;21.170;2023-05-07T01:39:26;16.73;;;7.90;;
37305;SDS011;23193;42.656;21.170;2023-05-07T01:41:55;22.60;;;8.40;;
37305;SDS011;23193;42.656;21.170;2023-05-07T01:44:22;23.98;;;8.32;;
37305;SDS011;23193;42.656;21.170;2023-05-07T01:46:48;21.83;;;9.35;;
37305;SDS011;23193;42.656;21.170;2023-05-07T01:49:15;16.45;;;7.80;;
37305;SDS011;23193;42.656;21.170;2023-05-07T01:51:41;19.70;;;8.63;;
37305;SDS011;23193;42.656;21.170;2023-05-07T01:54:07;22.42;;;8.50;;
37305;SDS011;23193;42.656;21.170;2023-05-07T01:56:33;17.63;;;8.27;;
37305;SDS011;23193;42.656;21.170;2023-05-07T01:59:00;18.90;;;8.90;;
37305;SDS011;23193;42.656;21.170;2023-05-07T02:01:27;16.35;;;8.27;;
37305;SDS011;23193;42.656;21.170;2023-05-07T02:03:53;11.35;;;7.10;;
37305;SDS011;23193;42.656;21.170;2023-05-07T02:06:19;14.07;;;8.02;;
37305;SDS011;23193;42.656;21.170;2023-05-07T02:08:46;18.25;;;8.68;;
37305;SDS011;23193;42.656;21.170;2023-05-07T02:11:12;25.58;;;8.95;;
37305;SDS011;23193;42.656;21.170;2023-05-07T02:13:39;25.75;;;9.40;;
37305;SDS011;23193;42.656;21.170;2023-05-07T02:16:05;19.75;;;8.55;;
37305;SDS011;23193;42.656;21.170;2023-05-07T02:18:31;19.73;;;8.73;;
37305;SDS011;23193;42.656;21.170;2023-05-07T02:20:58;23.48;;;8.10;;
37305;SDS011;23193;42.656;21.170;2023-05-07T02:23:24;18.15;;;8.60;;
37305;SDS011;23193;42.656;21.170;2023-05-07T02:25:50;15.70;;;7.78;;
37305;SDS011;23193;42.656;21.170;2023-05-07T02:28:16;16.52;;;8.25;;
37305;SDS011;23193;42.656;21.170;2023-05-07T02:30:43;19.58;;;8.63;;
37305;SDS011;23193;42.656;21.170;2023-05-07T02:33:09;15.40;;;8.45;;
37305;SDS011;23193;42.656;21.170;2023-05-07T02:35:37;15.02;;;8.00;;
37305;SDS011;23193;42.656;21.170;2023-05-07T02:38:03;13.77;;;7.28;;
37305;SDS011;23193;42.656;21.170;2023-05-07T02:40:30;21.60;;;8.63;;
37305;SDS011;23193;42.656;21.170;2023-05-07T02:42:58;17.73;;;8.27;;
37305;SDS011;23193;42.656;21.170;2023-05-07T02:45:25;20.58;;;8.65;;
37305;SDS011;23193;42.656;21.170;2023-05-07T02:47:51;18.67;;;7.95;;
37305;SDS011;23193;42.656;21.170;2023-05-07T02:50:17;19.55;;;8.85;;
37305;SDS011;23193;42.656;21.170;2023-05-07T02:52:43;21.65;;;8.85;;
37305;SDS011;23193;42.656;21.170;2023-05-07T02:55:10;16.23;;;9.23;;
37305;SDS011;23193;42.656;21.170;2023-05-07T02:57:36;18.13;;;9.23;;
37305;SDS011;23193;42.656;21.170;2023-05-07T03:00:12;16.55;;;7.75;;
37305;SDS011;23193;42.656;21.170;2023-05-07T03:02:39;17.23;;;7.75;;
37305;SDS011;23193;42.656;21.170;2023-05-07T03:05:05;11.65;;;7.43;;
37305;SDS011;23193;42.656;21.170;2023-05-07T03:07:32;19.25;;;8.65;;
37305;SDS011;23193;42.656;21.170;2023-05-07T03:09:58;17.05;;;8.57;;
37305;SDS011;23193;42.656;21.170;2023-05-07T03:12:24;15.30;;;8.07;;
37305;SDS011;23193;42.656;21.170;2023-05-07T03:14:50;18.98;;;8.50;;
37305;SDS011;23193;42.656;21.170;2023-05-07T03:17:16;13.15;;;7.90;;
37305;SDS011;23193;42.656;21.170;2023-05-07T03:19:43;16.50;;;8.35;;
37305;SDS011;23193;42.656;21.170;2023-05-07T03:22:09;16.30;;;9.77;;
37305;SDS011;23193;42.656;21.170;2023-05-07T03:24:35;11.40;;;8.15;;
37305;SDS011;23193;42.656;21.170;2023-05-07T03:27:01;17.00;;;9.18;;
37305;SDS011;23193;42.656;21.170;2023-05-07T03:29:28;12.75;;;8.50;;
37305;SDS011;23193;42.656;21.170;2023-05-07T03:31:54;14.93;;;8.27;;
37305;SDS011;23193;42.656;21.170;2023-05-07T03:34:20;12.50;;;8.23;;
37305;SDS011;23193;42.656;21.170;2023-05-07T03:36:50;14.65;;;7.95;;
37305;SDS011;23193;42.656;21.170;2023-05-07T03:39:16;17.50;;;8.63;;
37305;SDS011;23193;42.656;21.170;2023-05-07T03:41:42;15.02;;;8.65;;
37305;SDS011;23193;42.656;21.170;2023-05-07T03:44:09;13.73;;;8.60;;
37305;SDS011;23193;42.656;21.170;2023-05-07T03:46:35;22.40;;;9.45;;
37305;SDS011;23193;42.656;21.170;2023-05-07T03:49:01;18.45;;;8.18;;
37305;SDS011;23193;42.656;21.170;2023-05-07T03:51:27;11.98;;;8.05;;
37305;SDS011;23193;42.656;21.170;2023-05-07T03:53:53;15.55;;;7.93;;
37305;SDS011;23193;42.656;21.170;2023-05-07T03:56:22;19.42;;;11.65;;
37305;SDS011;23193;42.656;21.170;2023-05-07T03:58:51;35.25;;;16.20;;
37305;SDS011;23193;42.656;21.170;2023-05-07T04:01:17;30.83;;;15.50;;
37305;SDS011;23193;42.656;21.170;2023-05-07T04:03:44;22.88;;;14.40;;
37305;SDS011;23193;42.656;21.170;2023-05-07T04:06:10;27.60;;;13.90;;
37305;SDS011;23193;42.656;21.170;2023-05-07T04:08:37;19.67;;;12.25;;
37305;SDS011;23193;42.656;21.170;2023-05-07T04:11:03;19.77;;;11.85;;
37305;SDS011;23193;42.656;21.170;2023-05-07T04:13:29;20.65;;;12.13;;
37305;SDS011;23193;42.656;21.170;2023-05-07T04:15:56;24.13;;;12.73;;
37305;SDS011;23193;42.656;21.170;2023-05-07T04:18:22;20.55;;;12.40;;
37305;SDS011;23193;42.656;21.170;2023-05-07T04:20:48;26.40;;;13.48;;
37305;SDS011;23193;42.656;21.170;2023-05-07T04:23:15;21.90;;;12.05;;
37305;SDS011;23193;42.656;21.170;2023-05-07T04:25:41;20.95;;;11.75;;
37305;SDS011;23193;42.656;21.170;2023-05-07T04:28:07;23.63;;;11.35;;
37305;SDS011;23193;42.656;21.170;2023-05-07T04:30:33;24.02;;;11.60;;
37305;SDS011;23193;42.656;21.170;2023-05-07T04:32:59;24.48;;;10.15;;
37305;SDS011;23193;42.656;21.170;2023-05-07T04:35:26;32.03;;;13.93;;
37305;SDS011;23193;42.656;21.170;2023-05-07T04:37:52;26.58;;;12.93;;
37305;SDS011;23193;42.656;21.170;2023-05-07T04:40:18;26.98;;;15.15;;
37305;SDS011;23193;42.656;21.170;2023-05-07T04:42:45;30.02;;;14.15;;
37305;SDS011;23193;42.656;21.170;2023-05-07T04:45:11;29.55;;;14.63;;
37305;SDS011;23193;42.656;21.170;2023-05-07T04:47:38;28.27;;;13.93;;
37305;SDS011;23193;42.656;21.170;2023-05-07T04:50:05;29.85;;;13.80;;
37305;SDS011;23193;42.656;21.170;2023-05-07T04:52:31;21.25;;;11.85;;
37305;SDS011;23193;42.656;21.170;2023-05-07T04:55:01;21.65;;;12.18;;
37305;SDS011;23193;42.656;21.170;2023-05-07T04:57:27;19.92;;;11.40;;
37305;SDS011;23193;42.656;21.170;2023-05-07T04:59:53;21.13;;;10.80;;
37305;SDS011;23193;42.656;21.170;2023-05-07T05:02:20;26.23;;;12.23;;
37305;SDS011;23193;42.656;21.170;2023-05-07T05:04:46;15.18;;;9.82;;
37305;SDS011;23193;42.656;21.170;2023-05-07T05:07:12;19.42;;;11.25;;
37305;SDS011;23193;42.656;21.170;2023-05-07T05:09:38;24.88;;;10.48;;
37305;SDS011;23193;42.656;21.170;2023-05-07T05:12:04;17.40;;;8.68;;
37305;SDS011;23193;42.656;21.170;2023-05-07T05:14:32;25.27;;;10.35;;
37305;SDS011;23193;42.656;21.170;2023-05-07T05:16:58;20.50;;;11.40;;
37305;SDS011;23193;42.656;21.170;2023-05-07T05:19:24;18.35;;;9.98;;
37305;SDS011;23193;42.656;21.170;2023-05-07T05:21:50;19.83;;;10.45;;
37305;SDS011;23193;42.656;21.170;2023-05-07T05:24:17;24.83;;;9.75;;
37305;SDS011;23193;42.656;21.170;2023-05-07T05:26:43;18.25;;;9.38;;
37305;SDS011;23193;42.656;21.170;2023-05-07T05:29:09;16.23;;;9.45;;
37305;SDS011;23193;42.656;21.170;2023-05-07T05:31:36;21.80;;;10.30;;
37305;SDS011;23193;42.656;21.170;2023-05-07T05:34:02;20.63;;;9.57;;
37305;SDS011;23193;42.656;21.170;2023-05-07T05:36:28;18.92;;;10.38;;
37305;SDS011;23193;42.656;21.170;2023-05-07T05:38:55;24.80;;;11.27;;
37305;SDS011;23193;42.656;21.170;2023-05-07T05:41:21;26.13;;;10.35;;
37305;SDS011;23193;42.656;21.170;2023-05-07T05:43:48;26.35;;;10.55;;
37305;SDS011;23193;42.656;21.170;2023-05-07T05:46:14;24.55;;;10.75;;
37305;SDS011;23193;42.656;21.170;2023-05-07T05:48:41;19.80;;;9.38;;
37305;SDS011;23193;42.656;21.170;2023-05-07T05:51:07;23.67;;;9.80;;
37305;SDS011;23193;42.656;21.170;2023-05-07T05:53:33;18.58;;;10.52;;
37305;SDS011;23193;42.656;21.170;2023-05-07T05:56:00;22.17;;;10.80;;
37305;SDS011;23193;42.656;21.170;2023-05-07T05:58:26;19.27;;;11.02;;
37305;SDS011;23193;42.656;21.170;2023-05-07T06:00:52;18.20;;;11.00;;
37305;SDS011;23193;42.656;21.170;2023-05-07T06:03:19;20.60;;;11.13;;
37305;SDS011;23193;42.656;21.170;2023-05-07T06:05:45;25.35;;;10.90;;
37305;SDS011;23193;42.656;21.170;2023-05-07T06:08:11;26.88;;;10.88;;
37305;SDS011;23193;42.656;21.170;2023-05-07T06:10:37;24.40;;;10.57;;
37305;SDS011;23193;42.656;21.170;2023-05-07T06:13:03;18.58;;;10.20;;
37305;SDS011;23193;42.656;21.170;2023-05-07T06:15:30;19.73;;;9.77;;
37305;SDS011;23193;42.656;21.170;2023-05-07T06:17:56;18.05;;;9.02;;
37305;SDS011;23193;42.656;21.170;2023-05-07T06:20:22;18.00;;;9.60;;
37305;SDS011;23193;42.656;21.170;2023-05-07T06:22:49;21.10;;;9.70;;
37305;SDS011;23193;42.656;21.170;2023-05-07T06:25:15;19.65;;;9.35;;
37305;SDS011;23193;42.656;21.170;2023-05-07T06:27:41;23.80;;;9.07;;
37305;SDS011;23193;42.656;21.170;2023-05-07T06:30:07;20.55;;;9.68;;
37305;SDS011;23193;42.656;21.170;2023-05-07T06:32:33;15.60;;;9.23;;
37305;SDS011;23193;42.656;21.170;2023-05-07T06:35:00;18.20;;;9.40;;
37305;SDS011;23193;42.656;21.170;2023-05-07T06:37:26;19.25;;;9.38;;
37305;SDS011;23193;42.656;21.170;2023-05-07T06:39:52;22.42;;;9.15;;
37305;SDS011;23193;42.656;21.170;2023-05-07T06:42:18;19.58;;;8.95;;
37305;SDS011;23193;42.656;21.170;2023-05-07T06:44:44;14.23;;;8.20;;
37305;SDS011;23193;42.656;21.170;2023-05-07T06:47:10;21.77;;;9.10;;
37305;SDS011;23193;42.656;21.170;2023-05-07T06:49:36;15.20;;;8.90;;
37305;SDS011;23193;42.656;21.170;2023-05-07T06:52:03;14.50;;;8.10;;
37305;SDS011;23193;42.656;21.170;2023-05-07T06:54:29;17.70;;;8.10;;
37305;SDS011;23193;42.656;21.170;2023-05-07T06:56:55;18.17;;;9.48;;
37305;SDS011;23193;42.656;21.170;2023-05-07T06:59:21;16.35;;;10.23;;
37305;SDS011;23193;42.656;21.170;2023-05-07T07:01:47;11.93;;;8.52;;
37305;SDS011;23193;42.656;21.170;2023-05-07T07:04:14;14.90;;;8.50;;
37305;SDS011;23193;42.656;21.170;2023-05-07T07:06:40;20.85;;;8.90;;
37305;SDS011;23193;42.656;21.170;2023-05-07T07:09:06;17.45;;;9.13;;
37305;SDS011;23193;42.656;21.170;2023-05-07T07:11:32;15.43;;;9.95;;
37305;SDS011;23193;42.656;21.170;2023-05-07T07:13:58;15.90;;;8.50;;
37305;SDS011;23193;42.656;21.170;2023-05-07T07:16:25;23.15;;;8.75;;
37305;SDS011;23193;42.656;21.170;2023-05-07T07:18:51;14.73;;;8.00;;
37305;SDS011;23193;42.656;21.170;2023-05-07T07:21:17;14.93;;;7.75;;
37305;SDS011;23193;42.656;21.170;2023-05-07T07:23:43;13.93;;;6.85;;
37305;SDS011;23193;42.656;21.170;2023-05-07T07:26:09;8.23;;;5.82;;
37305;SDS011;23193;42.656;21.170;2023-05-07T07:28:41;10.80;;;5.95;;
37305;SDS011;23193;42.656;21.170;2023-05-07T07:31:07;11.15;;;6.18;;
37305;SDS011;23193;42.656;21.170;2023-05-07T07:33:33;8.98;;;6.07;;
37305;SDS011;23193;42.656;21.170;2023-05-07T07:36:00;14.93;;;6.88;;
37305;SDS011;23193;42.656;21.170;2023-05-07T07:38:26;9.10;;;5.60;;
37305;SDS011;23193;42.656;21.170;2023-05-07T07:40:53;10.65;;;5.35;;
37305;SDS011;23193;42.656;21.170;2023-05-07T07:43:19;11.23;;;5.18;;
37305;SDS011;23193;42.656;21.170;2023-05-07T07:45:46;15.73;;;5.47;;
37305;SDS011;23193;42.656;21.170;2023-05-07T07:48:12;10.35;;;5.07;;
37305;SDS011;23193;42.656;21.170;2023-05-07T07:50:38;11.48;;;5.10;;
37305;SDS011;23193;42.656;21.170;2023-05-07T07:53:04;10.82;;;5.25;;
37305;SDS011;23193;42.656;21.170;2023-05-07T07:55:30;8.82;;;5.05;;
37305;SDS011;23193;42.656;21.170;2023-05-07T07:57:57;9.13;;;4.22;;
37305;SDS011;23193;42.656;21.170;2023-05-07T08:00:23;9.20;;;4.60;;
37305;SDS011;23193;42.656;21.170;2023-05-07T08:02:49;9.82;;;5.20;;
37305;SDS011;23193;42.656;21.170;2023-05-07T08:05:15;13.63;;;4.40;;
37305;SDS011;23193;42.656;21.170;2023-05-07T08:07:42;15.40;;;4.03;;
37305;SDS011;23193;42.656;21.170;2023-05-07T08:10:08;9.95;;;4.80;;
37305;SDS011;23193;42.656;21.170;2023-05-07T08:12:34;6.82;;;3.63;;
37305;SDS011;23193;42.656;21.170;2023-05-07T08:15:01;15.70;;;4.20;;
37305;SDS011;23193;42.656;21.170;2023-05-07T08:17:27;10.07;;;4.03;;
37305;SDS011;23193;42.656;21.170;2023-05-07T08:19:53;12.00;;;4.80;;
37305;SDS011;23193;42.656;21.170;2023-05-07T08:22:19;19.63;;;4.95;;
37305;SDS011;23193;42.656;21.170;2023-05-07T08:24:46;9.27;;;4.88;;
37305;SDS011;23193;42.656;21.170;2023-05-07T08:27:13;11.15;;;4.30;;
37305;SDS011;23193;42.656;21.170;2023-05-07T08:29:39;6.93;;;3.90;;
37305;SDS011;23193;42.656;21.170;2023-05-07T08:32:05;6.85;;;3.95;;
37305;SDS011;23193;42.656;21.170;2023-05-07T08:34:31;10.02;;;4.30;;
37305;SDS011;23193;42.656;21.170;2023-05-07T08:36:57;7.82;;;3.90;;
37305;SDS011;23193;42.656;21.170;2023-05-07T08:39:23;10.55;;;4.72;;
37305;SDS011;23193;42.656;21.170;2023-05-07T08:41:49;14.20;;;5.45;;
37305;SDS011;23193;42.656;21.170;2023-05-07T08:44:17;8.25;;;4.95;;
37305;SDS011;23193;42.656;21.170;2023-05-07T08:46:47;8.38;;;4.30;;
37305;SDS011;23193;42.656;21.170;2023-05-07T08:49:14;9.43;;;4.20;;
37305;SDS011;23193;42.656;21.170;2023-05-07T08:51:41;8.18;;;4.00;;
37305;SDS011;23193;42.656;21.170;2023-05-07T08:54:07;14.82;;;3.78;;
37305;SDS011;23193;42.656;21.170;2023-05-07T08:56:35;6.70;;;3.63;;
37305;SDS011;23193;42.656;21.170;2023-05-07T08:59:01;13.40;;;4.15;;
37305;SDS011;23193;42.656;21.170;2023-05-07T09:01:28;8.68;;;4.18;;
37305;SDS011;23193;42.656;21.170;2023-05-07T09:03:55;14.13;;;4.47;;
37305;SDS011;23193;42.656;21.170;2023-05-07T09:06:21;8.00;;;3.83;;
37305;SDS011;23193;42.656;21.170;2023-05-07T09:08:51;6.10;;;3.28;;
37305;SDS011;23193;42.656;21.170;2023-05-07T09:11:19;8.27;;;4.57;;
37305;SDS011;23193;42.656;21.170;2023-05-07T09:13:46;12.23;;;4.47;;
37305;SDS011;23193;42.656;21.170;2023-05-07T09:16:12;8.82;;;4.25;;
37305;SDS011;23193;42.656;21.170;2023-05-07T09:18:41;14.15;;;4.50;;
37305;SDS011;23193;42.656;21.170;2023-05-07T09:21:25;8.02;;;4.53;;
37305;SDS011;23193;42.656;21.170;2023-05-07T09:23:52;5.90;;;3.42;;
37305;SDS011;23193;42.656;21.170;2023-05-07T09:26:20;12.02;;;3.85;;
37305;SDS011;23193;42.656;21.170;2023-05-07T09:28:47;7.50;;;3.83;;
37305;SDS011;23193;42.656;21.170;2023-05-07T09:31:13;7.90;;;3.83;;
37305;SDS011;23193;42.656;21.170;2023-05-07T09:33:39;7.00;;;3.15;;
37305;SDS011;23193;42.656;21.170;2023-05-07T09:36:06;9.15;;;3.60;;
37305;SDS011;23193;42.656;21.170;2023-05-07T09:38:33;12.13;;;3.95;;
37305;SDS011;23193;42.656;21.170;2023-05-07T09:41:04;8.05;;;3.88;;
37305;SDS011;23193;42.656;21.170;2023-05-07T09:43:34;13.68;;;4.22;;
37305;SDS011;23193;42.656;21.170;2023-05-07T09:46:02;13.97;;;4.17;;
37305;SDS011;23193;42.656;21.170;2023-05-07T09:48:29;20.55;;;5.28;;
37305;SDS011;23193;42.656;21.170;2023-05-07T09:50:55;9.18;;;4.43;;
37305;SDS011;23193;42.656;21.170;2023-05-07T09:53:23;12.75;;;4.68;;
37305;SDS011;23193;42.656;21.170;2023-05-07T09:55:50;10.45;;;4.90;;
37305;SDS011;23193;42.656;21.170;2023-05-07T09:58:17;9.02;;;3.83;;
37305;SDS011;23193;42.656;21.170;2023-05-07T10:00:44;10.98;;;3.83;;
37305;SDS011;23193;42.656;21.170;2023-05-07T10:03:11;23.77;;;5.38;;
37305;SDS011;23193;42.656;21.170;2023-05-07T10:05:39;11.70;;;4.47;;
37305;SDS011;23193;42.656;21.170;2023-05-07T10:08:06;22.70;;;4.60;;
37305;SDS011;23193;42.656;21.170;2023-05-07T10:10:32;8.13;;;4.25;;
37305;SDS011;23193;42.656;21.170;2023-05-07T10:13:00;9.25;;;4.38;;
37305;SDS011;23193;42.656;21.170;2023-05-07T10:15:26;13.02;;;4.55;;
37305;SDS011;23193;42.656;21.170;2023-05-07T10:17:53;9.80;;;4.95;;
37305;SDS011;23193;42.656;21.170;2023-05-07T10:20:20;6.63;;;4.15;;
37305;SDS011;23193;42.656;21.170;2023-05-07T10:22:47;5.00;;;3.60;;
37305;SDS011;23193;42.656;21.170;2023-05-07T10:25:16;14.98;;;9.80;;
37305;SDS011;23193;42.656;21.170;2023-05-07T10:27:45;9.63;;;5.57;;
37305;SDS011;23193;42.656;21.170;2023-05-07T10:30:16;7.03;;;3.85;;
37305;SDS011;23193;42.656;21.170;2023-05-07T10:32:47;7.28;;;3.83;;
37305;SDS011;23193;42.656;21.170;2023-05-07T10:35:20;6.80;;;3.85;;
37305;SDS011;23193;42.656;21.170;2023-05-07T10:37:47;9.30;;;3.55;;
37305;SDS011;23193;42.656;21.170;2023-05-07T10:40:14;10.95;;;3.75;;
37305;SDS011;23193;42.656;21.170;2023-05-07T10:43:02;9.43;;;3.60;;
37305;SDS011;23193;42.656;21.170;2023-05-07T10:45:32;9.48;;;3.67;;
37305;SDS011;23193;42.656;21.170;2023-05-07T10:50:37;8.38;;;3.33;;
37305;SDS011;23193;42.656;21.170;2023-05-07T11:00:56;5.25;;;3.35;;
37305;SDS011;23193;42.656;21.170;2023-05-07T11:03:23;4.68;;;3.05;;
37305;SDS011;23193;42.656;21.170;2023-05-07T11:06:08;6.95;;;3.05;;
37305;SDS011;23193;42.656;21.170;2023-05-07T11:11:43;7.55;;;3.50;;
37305;SDS011;23193;42.656;21.170;2023-05-07T11:14:06;7.45;;;2.97;;
37305;SDS011;23193;42.656;21.170;2023-05-07T11:16:33;11.10;;;2.75;;
37305;SDS011;23193;42.656;21.170;2023-05-07T11:19:01;9.68;;;2.90;;
37305;SDS011;23193;42.656;21.170;2023-05-07T11:21:34;7.63;;;3.08;;
37305;SDS011;23193;42.656;21.170;2023-05-07T11:24:01;7.03;;;2.70;;
37305;SDS011;23193;42.656;21.170;2023-05-07T11:26:28;9.90;;;3.10;;
37305;SDS011;23193;42.656;21.170;2023-05-07T11:28:55;13.50;;;4.15;;
37305;SDS011;23193;42.656;21.170;2023-05-07T11:31:22;4.70;;;2.83;;
37305;SDS011;23193;42.656;21.170;2023-05-07T11:33:49;6.20;;;3.55;;
37305;SDS011;23193;42.656;21.170;2023-05-07T11:36:15;15.95;;;3.92;;
37305;SDS011;23193;42.656;21.170;2023-05-07T11:38:42;8.02;;;3.65;;
37305;SDS011;23193;42.656;21.170;2023-05-07T11:41:08;11.80;;;3.67;;
37305;SDS011;23193;42.656;21.170;2023-05-07T11:43:36;9.32;;;4.53;;
37305;SDS011;23193;42.656;21.170;2023-05-07T11:46:11;19.92;;;4.47;;
37305;SDS011;23193;42.656;21.170;2023-05-07T11:48:39;18.63;;;5.47;;
37305;SDS011;23193;42.656;21.170;2023-05-07T11:51:06;21.48;;;5.22;;
37305;SDS011;23193;42.656;21.170;2023-05-07T11:53:40;21.63;;;5.35;;
37305;SDS011;23193;42.656;21.170;2023-05-07T11:56:09;30.17;;;6.72;;
37305;SDS011;23193;42.656;21.170;2023-05-07T11:58:36;24.02;;;6.40;;
37305;SDS011;23193;42.656;21.170;2023-05-07T12:01:02;21.95;;;5.47;;
37305;SDS011;23193;42.656;21.170;2023-05-07T12:03:29;23.83;;;6.38;;
37305;SDS011;23193;42.656;21.170;2023-05-07T12:05:55;25.65;;;6.05;;
37305;SDS011;23193;42.656;21.170;2023-05-07T12:08:21;13.00;;;5.22;;
37305;SDS011;23193;42.656;21.170;2023-05-07T12:10:48;18.70;;;5.43;;
37305;SDS011;23193;42.656;21.170;2023-05-07T12:13:15;19.27;;;5.07;;
37305;SDS011;23193;42.656;21.170;2023-05-07T12:15:42;18.75;;;5.40;;
37305;SDS011;23193;42.656;21.170;2023-05-07T12:18:08;14.25;;;4.80;;
37305;SDS011;23193;42.656;21.170;2023-05-07T12:20:36;20.17;;;5.07;;
37305;SDS011;23193;42.656;21.170;2023-05-07T12:23:02;13.43;;;5.10;;
37305;SDS011;23193;42.656;21.170;2023-05-07T12:25:35;16.98;;;5.63;;
37305;SDS011;23193;42.656;21.170;2023-05-07T12:28:01;18.70;;;5.43;;
37305;SDS011;23193;42.656;21.170;2023-05-07T12:30:30;13.68;;;5.07;;
37305;SDS011;23193;42.656;21.170;2023-05-07T12:32:56;10.15;;;4.65;;
37305;SDS011;23193;42.656;21.170;2023-05-07T12:35:28;10.70;;;4.32;;
37305;SDS011;23193;42.656;21.170;2023-05-07T12:37:55;10.05;;;4.13;;
37305;SDS011;23193;42.656;21.170;2023-05-07T12:40:21;18.75;;;5.43;;
37305;SDS011;23193;42.656;21.170;2023-05-07T12:42:48;5.95;;;4.25;;
37305;SDS011;23193;42.656;21.170;2023-05-07T12:45:20;9.05;;;4.18;;
37305;SDS011;23193;42.656;21.170;2023-05-07T12:47:46;13.68;;;3.90;;
37305;SDS011;23193;42.656;21.170;2023-05-07T12:50:13;10.98;;;4.28;;
37305;SDS011;23193;42.656;21.170;2023-05-07T12:52:39;6.97;;;3.88;;
37305;SDS011;23193;42.656;21.170;2023-05-07T12:55:06;21.42;;;6.78;;
37305;SDS011;23193;42.656;21.170;2023-05-07T12:57:39;40.17;;;8.75;;
37305;SDS011;23193;42.656;21.170;2023-05-07T13:00:06;42.53;;;9.13;;
37305;SDS011;23193;42.656;21.170;2023-05-07T13:02:36;32.50;;;7.00;;
37305;SDS011;23193;42.656;21.170;2023-05-07T13:05:03;22.85;;;6.07;;
37305;SDS011;23193;42.656;21.170;2023-05-07T13:07:29;17.92;;;4.72;;
37305;SDS011;23193;42.656;21.170;2023-05-07T13:09:55;25.08;;;6.35;;
37305;SDS011;23193;42.656;21.170;2023-05-07T13:12:21;26.05;;;5.95;;
37305;SDS011;23193;42.656;21.170;2023-05-07T13:14:48;23.23;;;6.32;;
37305;SDS011;23193;42.656;21.170;2023-05-07T13:17:14;15.18;;;4.93;;
37305;SDS011;23193;42.656;21.170;2023-05-07T13:19:40;14.27;;;5.00;;
37305;SDS011;23193;42.656;21.170;2023-05-07T13:22:06;21.88;;;5.50;;
37305;SDS011;23193;42.656;21.170;2023-05-07T13:24:32;20.77;;;6.15;;
37305;SDS011;23193;42.656;21.170;2023-05-07T13:26:58;27.90;;;6.15;;
37305;SDS011;23193;42.656;21.170;2023-05-07T13:29:25;27.27;;;6.88;;
37305;SDS011;23193;42.656;21.170;2023-05-07T13:31:56;19.70;;;6.03;;
37305;SDS011;23193;42.656;21.170;2023-05-07T13:34:22;24.13;;;6.32;;
37305;SDS011;23193;42.656;21.170;2023-05-07T13:36:48;18.17;;;5.95;;
37305;SDS011;23193;42.656;21.170;2023-05-07T13:39:15;19.42;;;4.47;;
37305;SDS011;23193;42.656;21.170;2023-05-07T13:41:41;21.92;;;6.13;;
37305;SDS011;23193;42.656;21.170;2023-05-07T13:44:07;17.88;;;5.25;;
37305;SDS011;23193;42.656;21.170;2023-05-07T13:46:33;21.98;;;6.63;;
37305;SDS011;23193;42.656;21.170;2023-05-07T13:49:00;35.33;;;7.72;;
37305;SDS011;23193;42.656;21.170;2023-05-07T13:51:26;34.03;;;7.32;;
37305;SDS011;23193;42.656;21.170;2023-05-07T13:53:52;22.98;;;6.25;;
37305;SDS011;23193;42.656;21.170;2023-05-07T13:56:19;14.30;;;4.93;;
37305;SDS011;23193;42.656;21.170;2023-05-07T13:58:46;23.60;;;5.93;;
37305;SDS011;23193;42.656;21.170;2023-05-07T14:01:12;19.55;;;5.90;;
37305;SDS011;23193;42.656;21.170;2023-05-07T14:03:38;33.58;;;6.65;;
37305;SDS011;23193;42.656;21.170;2023-05-07T14:06:05;23.67;;;7.03;;
37305;SDS011;23193;42.656;21.170;2023-05-07T14:08:31;22.30;;;6.10;;
37305;SDS011;23193;42.656;21.170;2023-05-07T14:10:57;26.40;;;6.63;;
37305;SDS011;23193;42.656;21.170;2023-05-07T14:13:25;36.83;;;7.05;;
37305;SDS011;23193;42.656;21.170;2023-05-07T14:15:51;29.10;;;6.50;;
37305;SDS011;23193;42.656;21.170;2023-05-07T14:18:17;28.38;;;6.70;;
37305;SDS011;23193;42.656;21.170;2023-05-07T14:20:44;21.98;;;5.65;;
37305;SDS011;23193;42.656;21.170;2023-05-07T14:23:11;28.70;;;6.10;;
37305;SDS011;23193;42.656;21.170;2023-05-07T14:25:37;18.42;;;5.47;;
37305;SDS011;23193;42.656;21.170;2023-05-07T14:28:04;18.70;;;5.32;;
37305;SDS011;23193;42.656;21.170;2023-05-07T14:30:30;30.10;;;6.95;;
37305;SDS011;23193;42.656;21.170;2023-05-07T14:32:56;20.40;;;5.68;;